Data for 12/24/2013

Time Sea-Level Adjusted Pressure Absolute Pressure Temperature Relative Humidity Dew Point   
(mb) (inHg) (mb) (inHg) (C) (F) (%) (C) (F)
00:05 1014 29.94 844 24.92 2.7 36.8 70 -2.3 27.9
00:10 1014 29.94 843 24.89 3.3 37.9 58 -4.1 24.6
00:15 1014 29.94 844 24.92 3.7 38.7 66 -2 28.4
00:20 1015 29.97 844 24.92 3.1 37.6 70 -1.8 28.7
00:25 1015 29.97 844 24.92 2.9 37.2 71 -1.8 28.8
00:30 1015 29.97 844 24.92 2.8 37 74 -1.3 29.6
00:35 1016 30 845 24.95 2.7 36.8 68 -2.7 27.2
00:40 1016 30 845 24.95 2.4 36.4 69 -2.7 27.2
00:45 1016 30 846 24.98 2.1 35.8 69 -2.9 26.7
00:50 1016 30 846 24.98 2.1 35.8 65 -3.7 25.3
00:55 1017 30.03 846 24.98 2.1 35.7 64 -4 24.8
01:00 1017 30.03 846 24.98 1.9 35.4 66 -3.8 25.1
01:05 1017 30.03 846 24.98 1.7 35 72 -2.9 26.8
01:10 1017 30.03 846 24.98 1.3 34.3 76 -2.5 27.6
01:15 1017 30.03 846 24.98 1.1 33.9 78 -2.4 27.8
01:20 1017 30.03 846 24.98 0.9 33.7 77 -2.7 27.2
01:25 1017 30.03 846 24.98 1 33.8 76 -2.7 27.1
01:30 1017 30.03 846 24.98 1.1 34.1 69 -3.9 25.1
01:35 1017 30.03 847 25.01 1.5 34.7 64 -4.6 23.7
01:40 1017 30.03 847 25.01 1.7 35.1 61 -5 23.1
01:45 1018 30.06 847 25.01 1.7 35.1 57 -5.9 21.4
01:50 1018 30.06 847 25.01 1.7 35.1 54 -6.6 20.1
01:55 1018 30.06 847 25.01 1.8 35.2 53 -6.8 19.8
02:00 1018 30.06 847 25.01 1.7 35 50 -7.7 18.1
02:05 1018 30.06 847 25.01 1.7 35 49 -7.8 17.9
02:10 1018 30.06 847 25.01 1.6 34.9 49 -7.9 17.7
02:15 1018 30.06 847 25.01 1.6 34.9 49 -8 17.7
02:20 1018 30.06 848 25.04 1.5 34.7 49 -8.2 17.3
02:25 1019 30.09 848 25.04 1.5 34.6 50 -8 17.7
02:30 1018 30.06 848 25.04 1.4 34.5 50 -7.8 17.9
02:35 1018 30.06 847 25.01 1.3 34.4 49 -8.2 17.2
02:40 1018 30.06 848 25.04 1.3 34.3 50 -8 17.5
02:45 1019 30.09 848 25.04 1.2 34.1 52 -7.5 18.5
02:50 1019 30.09 848 25.04 1.2 34.1 50 -8.2 17.3
02:55 1019 30.09 848 25.04 1.2 34.1 52 -7.7 18.1
03:00 1019 30.09 848 25.04 1.1 34 51 -7.8 17.9
03:05 1019 30.09 849 25.07 1 33.8 52 -7.8 17.9
03:10 1019 30.09 849 25.07 0.9 33.7 52 -7.7 18.1
03:15 1019 30.09 848 25.04 0.8 33.5 54 -7.6 18.4
03:20 1019 30.09 849 25.07 0.8 33.4 51 -8.2 17.3
03:25 1019 30.09 849 25.07 0.7 33.3 51 -8.4 16.9
03:30 1020 30.12 849 25.07 0.7 33.3 49 -8.8 16.2
03:35 1020 30.12 849 25.07 0.7 33.2 50 -8.7 16.4
03:40 1020 30.12 849 25.07 0.6 33 49 -8.8 16.1
03:45 1020 30.12 849 25.07 0.5 32.8 49 -9 15.8
03:50 1020 30.12 849 25.07 0.5 32.8 47 -9.6 14.8
03:55 1020 30.12 849 25.07 0.5 32.9 46 -9.7 14.5
04:00 1020 30.12 849 25.07 0.5 32.9 47 -9.5 14.8
04:05 1020 30.12 849 25.07 0.4 32.7 48 -9.5 14.9
04:10 1020 30.12 849 25.07 0.2 32.4 47 -9.8 14.4
04:15 1020 30.12 849 25.07 0.1 32.2 48 -9.5 14.9
04:20 1020 30.12 850 25.1 0 32 48 -9.8 14.4
04:25 1020 30.12 850 25.1 -0 32 48 -9.7 14.5
04:30 1020 30.12 850 25.1 -0.1 31.9 49 -9.7 14.6
04:35 1021 30.15 850 25.1 -0.1 31.8 49 -9.6 14.8
04:40 1021 30.15 850 25.1 -0.1 31.8 49 -9.7 14.6
04:45 1021 30.15 850 25.1 -0.1 31.7 48 -9.8 14.3
04:50 1021 30.15 850 25.1 -0.2 31.7 49 -9.6 14.8
04:55 1021 30.15 850 25.1 -0.3 31.5 48 -9.9 14.2
05:00 1021 30.15 850 25.1 -0.2 31.6 49 -9.7 14.5
05:05 1021 30.15 850 25.1 -0.2 31.7 47 -10.1 13.8
05:10 1021 30.15 850 25.1 -0.1 31.8 48 -9.8 14.4
05:15 1021 30.15 851 25.13 -0.2 31.7 49 -9.6 14.7
05:20 1021 30.15 851 25.13 -0.3 31.5 51 -9.3 15.2
05:25 1021 30.15 851 25.13 -0.3 31.4 50 -9.5 14.9
05:30 1021 30.15 851 25.13 -0.4 31.3 52 -9.1 15.6
05:35 1021 30.15 851 25.13 -0.4 31.2 52 -9.2 15.5
05:40 1022 30.18 851 25.13 -0.4 31.2 50 -9.6 14.7
05:45 1022 30.18 851 25.13 -0.3 31.4 49 -9.7 14.6
05:50 1022 30.18 851 25.13 -0.3 31.4 51 -9.3 15.2
05:55 1022 30.18 851 25.13 -0.4 31.2 52 -9.1 15.6
06:00 1022 30.18 851 25.13 -0.5 31.1 51 -9.5 14.8
06:05 1022 30.18 851 25.13 -0.4 31.2 51 -9.5 14.9
06:10 1022 30.18 851 25.13 -0.5 31.2 51 -9.4 15.1
06:15 1022 30.18 851 25.13 -0.5 31.1 53 -9.1 15.7
06:20 1022 30.18 851 25.13 -0.6 31 52 -9.2 15.5
06:25 1022 30.18 851 25.13 -0.5 31.1 52 -9.1 15.5
06:30 1022 30.18 851 25.13 -0.5 31 53 -9 15.8
06:35 1022 30.18 851 25.13 -0.5 31.1 52 -9.2 15.4
06:40 1022 30.18 851 25.13 -0.4 31.3 52 -9.1 15.6
06:45 1022 30.18 851 25.13 -0.5 31.1 53 -9 15.8
06:50 1022 30.18 851 25.13 -0.5 31.1 53 -9 15.8
06:55 1022 30.18 852 25.16 -0.6 31 53 -9.1 15.6
07:00 1022 30.18 852 25.16 -0.6 30.9 54 -8.8 16.2
07:05 1023 30.21 852 25.16 -0.6 30.9 54 -8.8 16.2
07:10 1023 30.21 852 25.16 -0.6 30.9 54 -8.8 16.2
07:15 1023 30.21 852 25.16 -0.7 30.8 54 -8.9 16
07:20 1023 30.21 852 25.16 -0.7 30.8 56 -8.5 16.7
07:25 1023 30.21 852 25.16 -0.7 30.7 55 -8.6 16.4
07:30 1023 30.21 852 25.16 -0.7 30.7 56 -8.4 16.9
07:35 1023 30.21 852 25.16 -0.8 30.6 57 -8.3 17
07:40 1023 30.21 852 25.16 -0.8 30.5 56 -8.4 16.8
07:45 1023 30.21 852 25.16 -0.9 30.5 58 -8.1 17.4
07:50 1023 30.21 852 25.16 -0.9 30.4 58 -8.2 17.2
07:55 1023 30.21 852 25.16 -0.9 30.5 57 -8.3 17.1
08:00 1023 30.21 853 25.19 -0.9 30.4 57 -8.3 17
08:05 1023 30.21 853 25.19 -0.9 30.4 57 -8.4 16.8
08:10 1023 30.21 853 25.19 -0.9 30.4 58 -8.1 17.4
08:15 1023 30.21 853 25.19 -0.9 30.3 57 -8.4 16.9
08:20 1024 30.24 853 25.19 -0.9 30.4 56 -8.5 16.7
08:25 1024 30.24 853 25.19 -0.9 30.4 56 -8.5 16.6
08:30 1024 30.24 853 25.19 -0.8 30.5 57 -8.4 16.9
08:35 1024 30.24 853 25.19 -0.9 30.5 57 -8.2 17.2
08:40 1024 30.24 853 25.19 -0.9 30.3 58 -8.2 17.3
08:45 1024 30.24 853 25.19 -1 30.1 60 -7.9 17.8
08:50 1024 30.24 853 25.19 -1.1 30 59 -8.1 17.4
08:55 1024 30.24 853 25.19 -1.1 29.9 60 -7.9 17.8
09:00 1024 30.24 853 25.19 -1.1 30 60 -8 17.6
09:05 1024 30.24 853 25.19 -1.1 30 59 -8.2 17.3
09:10 1024 30.24 853 25.19 -1.1 30.1 60 -7.8 17.9
09:15 1024 30.24 853 25.19 -1.1 30.1 60 -8 17.6
09:20 1024 30.24 854 25.22 -1.1 30 61 -7.7 18.1
09:25 1024 30.24 854 25.22 -1.1 29.9 59 -8.1 17.5
09:30 1024 30.24 854 25.22 -1.2 29.9 59 -8.1 17.4
09:35 1025 30.27 854 25.22 -1.1 29.9 59 -8.1 17.5
09:40 1025 30.27 854 25.22 -1.1 29.9 59 -8.3 17.1
09:45 1025 30.27 854 25.22 -1.1 29.9 60 -8.1 17.5
09:50 1025 30.27 854 25.22 -1.2 29.8 60 -8 17.5
09:55 1025 30.27 854 25.22 -1.3 29.7 60 -8.2 17.3
10:00 1025 30.27 854 25.22 -1.3 29.7 59 -8.2 17.2
10:05 1025 30.27 854 25.22 -1.3 29.6 60 -8.2 17.2
10:10 1025 30.27 854 25.22 -1.4 29.5 59 -8.4 16.9
10:15 1025 30.27 854 25.22 -1.5 29.4 60 -8.4 17
10:20 1025 30.27 854 25.22 -1.5 29.2 59 -8.6 16.5
10:25 1025 30.27 854 25.22 -1.6 29.2 59 -8.6 16.5
10:30 1025 30.27 854 25.22 -1.6 29.1 59 -8.7 16.4
10:35 1025 30.27 854 25.22 -1.7 28.9 60 -8.6 16.5
10:40 1025 30.27 854 25.22 -2 28.4 61 -8.5 16.6
10:45 1025 30.27 854 25.22 -2 28.4 59 -8.9 16
10:50 1025 30.27 854 25.22 -1.9 28.6 59 -8.9 16
10:55 1025 30.27 854 25.22 -1.4 29.5 57 -8.9 16
11:00 1025 30.27 854 25.22 -1.1 30 54 -9.2 15.5
11:05 1025 30.27 854 25.22 -0.6 30.9 53 -9.1 15.6
11:10 1025 30.27 854 25.22 -0.3 31.5 51 -9.2 15.5
11:15 1025 30.27 854 25.22 -0 32 51 -9 15.9
11:20 1025 30.27 855 25.25 -0 32 51 -8.9 16.1
11:25 1025 30.27 855 25.25 0.4 32.7 48 -9.3 15.2
11:30 1025 30.27 855 25.25 0.6 33.1 47 -9.3 15.2
11:35 1025 30.27 855 25.25 0.6 33 48 -9.3 15.2
11:40 1026 30.3 855 25.25 0.8 33.4 48 -9.1 15.6
11:45 1026 30.3 855 25.25 1 33.8 47 -9 15.8
11:50 1026 30.3 855 25.25 1.2 34.2 47 -8.8 16.1
11:55 1026 30.3 855 25.25 1.1 34.1 47 -9 15.9
12:00 1025 30.27 855 25.25 1 33.7 45 -9.6 14.8
12:05 1025 30.27 855 25.25 1.2 34.2 45 -9.5 14.9
12:10 1025 30.27 855 25.25 1.2 34.1 45 -9.6 14.8
12:15 1025 30.27 855 25.25 1.5 34.8 44 -9.4 15.1
12:20 1025 30.27 855 25.25 1.5 34.7 44 -9.4 15
12:25 1025 30.27 855 25.25 1.7 35.1 43 -9.7 14.6
12:30 1026 30.3 855 25.25 1.9 35.4 44 -9.2 15.5
12:35 1025 30.27 855 25.25 1.7 35 46 -8.9 16
12:40 1025 30.27 855 25.25 1.7 35.1 44 -9.2 15.5
12:45 1025 30.27 855 25.25 2 35.5 44 -9 15.7
12:50 1025 30.27 855 25.25 2.1 35.8 44 -9 15.8
12:55 1025 30.27 855 25.25 2 35.6 44 -9.1 15.7
13:00 1025 30.27 854 25.22 1.9 35.5 45 -8.8 16.2
13:05 1025 30.27 854 25.22 2.2 36 43 -9.1 15.7
13:10 1025 30.27 854 25.22 2.4 36.3 43 -8.8 16.1
13:15 1025 30.27 854 25.22 2.4 36.2 44 -8.7 16.3
13:20 1025 30.27 854 25.22 2.6 36.6 44 -8.6 16.6
13:25 1025 30.27 854 25.22 2.4 36.3 43 -8.9 16
13:30 1025 30.27 854 25.22 2.5 36.6 44 -8.6 16.6
13:35 1025 30.27 854 25.22 2.8 37 42 -8.8 16.2
13:40 1025 30.27 854 25.22 2.5 36.5 43 -8.9 16
13:45 1025 30.27 854 25.22 2.4 36.3 42 -9.3 15.3
13:50 1025 30.27 854 25.22 2.5 36.5 40 -9.6 14.6
13:55 1025 30.27 854 25.22 2.7 36.8 40 -9.5 14.9
14:00 1025 30.27 854 25.22 3.1 37.5 40 -9.3 15.2
14:05 1025 30.27 854 25.22 3.1 37.6 40 -9.3 15.2
14:10 1025 30.27 854 25.22 3 37.4 39 -9.5 14.8
14:15 1025 30.27 854 25.22 3.2 37.7 41 -9 15.8
14:20 1025 30.27 854 25.22 3 37.4 40 -9.3 15.3
14:25 1025 30.27 854 25.22 2.9 37.3 41 -9.2 15.5
14:30 1025 30.27 854 25.22 2.8 37.1 40 -9.6 14.7
14:35 1025 30.27 854 25.22 2.8 37.1 40 -9.4 15
14:40 1025 30.27 854 25.22 3.2 37.7 39 -9.6 14.6
14:45 1025 30.27 854 25.22 3.1 37.5 39 -9.7 14.5
14:50 1025 30.27 854 25.22 3.1 37.5 38 -10 14
14:55 1025 30.27 854 25.22 3 37.4 38 -9.8 14.3
15:00 1025 30.27 854 25.22 3 37.5 39 -9.7 14.6
15:05 1025 30.27 854 25.22 3 37.5 38 -9.9 14.2
15:10 1025 30.27 854 25.22 3.2 37.7 38 -9.9 14.2
15:15 1025 30.27 854 25.22 2.9 37.3 40 -9.3 15.3
15:20 1025 30.27 854 25.22 3.1 37.6 38 -9.8 14.3
15:25 1025 30.27 854 25.22 3.3 38 36 -10.3 13.5
15:30 1025 30.27 854 25.22 3.2 37.7 38 -9.9 14.1
15:35 1025 30.27 854 25.22 3 37.3 39 -9.8 14.4
15:40 1025 30.27 854 25.22 3.1 37.5 38 -9.9 14.1
15:45 1025 30.27 854 25.22 2.8 37 39 -10 14
15:50 1025 30.27 854 25.22 2.8 37 38 -10.1 13.7
15:55 1025 30.27 854 25.22 2.8 37.1 39 -9.8 14.4
16:00 1025 30.27 854 25.22 2.5 36.5 40 -9.6 14.7
16:05 1025 30.27 854 25.22 2.1 35.8 42 -9.4 15
16:10 1025 30.27 854 25.22 2.1 35.7 42 -9.7 14.6
16:15 1025 30.27 854 25.22 2.2 36 43 -9.2 15.5
16:20 1025 30.27 854 25.22 2.3 36.1 41 -9.6 14.7
16:25 1025 30.27 854 25.22 2.4 36.2 41 -9.7 14.6
16:30 1025 30.27 854 25.22 1.9 35.5 40 -10.2 13.7
16:35 1025 30.27 854 25.22 1.7 35.1 40 -10.3 13.4
16:40 1025 30.27 854 25.22 1.8 35.2 41 -10.2 13.7
16:45 1025 30.27 854 25.22 1.8 35.2 40 -10.4 13.4
16:50 1025 30.27 854 25.22 1.6 34.9 41 -10.4 13.3
16:55 1025 30.27 854 25.22 1.4 34.5 42 -10.1 13.8
17:00 1025 30.27 854 25.22 1 33.8 44 -10 14.1
17:05 1025 30.27 854 25.22 0.9 33.7 44 -10.1 13.8
17:10 1025 30.27 855 25.25 1.2 34.1 40 -10.9 12.4
17:15 1025 30.27 855 25.25 1.3 34.4 40 -10.8 12.5
17:20 1025 30.27 855 25.25 1.3 34.3 41 -10.6 13
17:25 1025 30.27 855 25.25 1.2 34.2 42 -10.3 13.4
17:30 1025 30.27 855 25.25 0.7 33.3 44 -10.3 13.5
17:35 1026 30.3 855 25.25 0.5 32.8 45 -10.2 13.6
17:40 1026 30.3 855 25.25 0.2 32.4 46 -10.2 13.6
17:45 1026 30.3 855 25.25 -0.1 31.9 47 -10.1 13.9
17:50 1026 30.3 855 25.25 -0.4 31.3 48 -10.2 13.7
17:55 1026 30.3 855 25.25 -0.5 31.1 48 -10.1 13.7
18:00 1026 30.3 855 25.25 -0.6 30.9 49 -10.1 13.8
18:05 1026 30.3 855 25.25 -0.5 31 47 -10.4 13.2
18:10 1026 30.3 855 25.25 -0.4 31.3 47 -10.5 13.2
18:15 1026 30.3 855 25.25 -0.3 31.4 47 -10.3 13.4
18:20 1026 30.3 855 25.25 -0.3 31.4 47 -10.3 13.4
18:25 1026 30.3 855 25.25 -0.5 31.2 47 -10.4 13.3
18:30 1026 30.3 855 25.25 -0.6 30.9 48 -10.4 13.3
18:35 1026 30.3 855 25.25 -1.1 30.1 50 -10.2 13.6
18:40 1026 30.3 855 25.25 -1.6 29.1 51 -10.4 13.4
18:45 1026 30.3 855 25.25 -1.7 29 52 -10.2 13.7
18:50 1026 30.3 855 25.25 -2 28.4 52 -10.7 12.7
18:55 1026 30.3 855 25.25 -2.5 27.4 52 -11 12.2
19:00 1026 30.3 855 25.25 -2.1 28.2 51 -10.9 12.4
19:05 1026 30.3 855 25.25 -1.8 28.7 51 -10.6 13
19:10 1026 30.3 855 25.25 -1.9 28.6 52 -10.5 13.1
19:15 1026 30.3 855 25.25 -2.3 27.9 54 -10.3 13.4
19:20 1026 30.3 855 25.25 -2.5 27.6 55 -10.4 13.2
19:25 1026 30.3 855 25.25 -2.7 27.2 56 -10.3 13.5
19:30 1026 30.3 855 25.25 -2.9 26.8 56 -10.4 13.2
19:35 1026 30.3 855 25.25 -3.2 26.3 58 -10.4 13.4
19:40 1026 30.3 856 25.28 -3.3 26.1 58 -10.3 13.5
19:45 1026 30.3 855 25.25 -3.3 26 58 -10.4 13.2
19:50 1026 30.3 855 25.25 -3.5 25.7 60 -10.2 13.6
19:55 1026 30.3 855 25.25 -3.2 26.3 57 -10.4 13.2
20:00 1026 30.3 855 25.25 -3 26.6 58 -10.2 13.6
20:05 1026 30.3 855 25.25 -2.9 26.8 58 -10.1 13.8
20:10 1026 30.3 855 25.25 -2.8 27 57 -10.1 13.7
20:15 1026 30.3 855 25.25 -2.8 26.9 57 -10.1 13.8
20:20 1026 30.3 855 25.25 -3 26.7 57 -10.3 13.5
20:25 1026 30.3 855 25.25 -3 26.6 57 -10.4 13.3
20:30 1026 30.3 855 25.25 -2.9 26.8 57 -10.3 13.4
20:35 1026 30.3 856 25.28 -3 26.6 57 -10.5 13.2
20:40 1026 30.3 856 25.28 -3 26.6 56 -10.5 13.1
20:45 1026 30.3 856 25.28 -2.9 26.7 56 -10.5 13.1
20:50 1026 30.3 856 25.28 -2.8 26.9 55 -10.5 13
20:55 1027 30.33 856 25.28 -2.7 27.2 55 -10.5 13.1
21:00 1027 30.33 856 25.28 -2.6 27.3 54 -10.6 12.9
21:05 1027 30.33 856 25.28 -2.5 27.4 54 -10.7 12.7
21:10 1027 30.33 856 25.28 -2.3 27.8 54 -10.5 13.2
21:15 1027 30.33 856 25.28 -2.3 27.8 54 -10.5 13.1
21:20 1027 30.33 856 25.28 -2.3 27.8 53 -10.7 12.7
21:25 1027 30.33 856 25.28 -2.4 27.8 54 -10.5 13.1
21:30 1027 30.33 856 25.28 -2.4 27.7 53 -10.7 12.8
21:35 1027 30.33 856 25.28 -2.6 27.4 54 -10.6 12.9
21:40 1026 30.3 856 25.28 -2.8 27 54 -10.9 12.4
21:45 1026 30.3 856 25.28 -3 26.5 56 -10.7 12.8
21:50 1027 30.33 856 25.28 -3.6 25.5 57 -10.9 12.5
21:55 1026 30.3 856 25.28 -3.8 25.1 58 -10.9 12.3
22:00 1027 30.33 856 25.28 -3.5 25.6 56 -11.2 11.9
22:05 1027 30.33 856 25.28 -3.2 26.2 53 -11.5 11.3
22:10 1027 30.33 856 25.28 -2.7 27.1 53 -11.1 12
22:15 1027 30.33 856 25.28 -2.7 27.2 53 -10.9 12.4
22:20 1027 30.33 856 25.28 -3 26.5 54 -11.1 12
22:25 1027 30.33 856 25.28 -3.8 25.2 57 -11.1 12.1
22:30 1027 30.33 856 25.28 -4.8 23.4 58 -11.9 10.6
22:35 1027 30.33 856 25.28 -4.5 23.9 58 -11.5 11.3
22:40 1027 30.33 856 25.28 -5.1 22.9 60 -11.7 10.9
22:45 1027 30.33 856 25.28 -5 23 58 -11.9 10.5
22:50 1027 30.33 856 25.28 -5 23 59 -11.8 10.8
22:55 1027 30.33 856 25.28 -5.1 22.8 60 -11.8 10.8
23:00 1027 30.33 856 25.28 -4.9 23.1 58 -11.9 10.6
23:05 1027 30.33 856 25.28 -4.9 23.2 60 -11.5 11.2
23:10 1027 30.33 856 25.28 -5.4 22.3 61 -11.9 10.6
23:15 1027 30.33 856 25.28 -5.3 22.5 60 -11.9 10.6
23:20 1027 30.33 856 25.28 -5.4 22.3 63 -11.4 11.4
23:25 1027 30.33 856 25.28 -5.2 22.6 60 -11.9 10.7
23:30 1027 30.33 856 25.28 -5.3 22.5 61 -11.7 10.9
23:35 1027 30.33 856 25.28 -4.9 23.2 59 -11.8 10.8
23:40 1027 30.33 856 25.28 -5.4 22.4 62 -11.5 11.3
23:45 1027 30.33 856 25.28 -6 21.2 65 -11.5 11.3
23:50 1027 30.33 856 25.28 -6.3 20.6 65 -11.9 10.6
23:55 1027 30.33 856 25.28 -6.3 20.6 64 -12 10.4
24:00 1027 30.33 856 25.28 -6.2 20.8 64 -12 10.4